createdAt,value
2023-04-01T00:00:46.104Z,3.63
2023-04-01T00:05:48.623Z,3.45
2023-04-01T00:10:51.212Z,3.40
2023-04-01T00:15:54.640Z,3.55
2023-04-01T00:20:57.303Z,4.10
2023-04-01T00:26:02.990Z,3.60
2023-04-01T00:31:10.009Z,2.85
2023-04-01T00:36:18.323Z,2.72
2023-04-01T00:41:22.653Z,3.03
2023-04-01T00:46:25.065Z,2.72
2023-04-01T00:51:30.789Z,2.38
2023-04-01T00:56:41.697Z,3.22
2023-04-01T01:01:44.027Z,2.78
2023-04-01T01:07:14.992Z,3.17
2023-04-01T01:17:32.020Z,2.72
2023-04-01T01:22:55.844Z,2.53
2023-04-01T01:28:24.556Z,3.15
2023-04-01T01:33:32.961Z,3.55
2023-04-01T01:38:37.142Z,3.10
2023-04-01T01:43:44.854Z,2.30
2023-04-01T01:48:50.775Z,3.05
2023-04-01T01:53:53.165Z,3.85
2023-04-01T01:59:10.574Z,3.70
2023-04-01T02:04:16.329Z,3.40
2023-04-01T02:09:20.795Z,2.95
2023-04-01T02:14:44.812Z,3.30
2023-04-01T02:19:53.446Z,3.00
2023-04-01T02:25:01.077Z,4.22
2023-04-01T02:30:04.412Z,3.63
2023-04-01T02:35:10.195Z,2.88
2023-04-01T02:45:16.395Z,3.05
2023-04-01T02:50:19.062Z,3.10
2023-04-01T02:55:21.513Z,1.92
2023-04-01T03:00:24.122Z,2.88
2023-04-01T03:05:26.595Z,3.90
2023-04-01T03:10:29.023Z,3.00
2023-04-01T03:15:31.687Z,4.28
2023-04-01T03:20:34.329Z,3.50
2023-04-01T03:25:36.965Z,3.70
2023-04-01T03:30:39.380Z,2.55
2023-04-01T03:35:42.044Z,4.22
2023-04-01T03:40:45.297Z,4.60
2023-04-01T03:45:50.114Z,3.72
2023-04-01T03:50:52.672Z,2.92
2023-04-01T03:55:55.917Z,4.00
2023-04-01T04:00:58.680Z,3.72
2023-04-01T04:06:01.047Z,3.55
2023-04-01T04:11:04.406Z,3.97
2023-04-01T04:16:07.370Z,3.72
2023-04-01T04:21:15.102Z,5.30
2023-04-01T04:26:17.956Z,4.70
2023-04-01T04:31:27.747Z,4.88
2023-04-01T04:36:33.016Z,3.25
2023-04-01T04:41:39.076Z,4.20
2023-04-01T04:46:41.514Z,3.65
2023-04-01T04:51:48.369Z,3.33
2023-04-01T04:56:54.356Z,3.20
2023-04-01T05:01:58.413Z,2.83
2023-04-01T05:07:01.340Z,3.28
2023-04-01T05:12:04.202Z,3.30
2023-04-01T05:17:23.046Z,3.28
2023-04-01T05:22:25.685Z,4.25
2023-04-01T05:27:28.597Z,4.72
2023-04-01T05:32:32.816Z,3.78
2023-04-01T05:37:37.863Z,3.65
2023-04-01T05:42:40.725Z,3.45
2023-04-01T05:47:43.636Z,3.30
2023-04-01T05:52:46.807Z,3.17
2023-04-01T05:57:50.715Z,3.38
2023-04-01T06:02:53.724Z,3.00
2023-04-01T06:08:11.422Z,3.58
2023-04-01T06:13:43.232Z,3.05
2023-04-01T06:19:07.348Z,3.65
2023-04-01T06:24:20.652Z,3.92
2023-04-01T06:29:25.984Z,3.65
2023-04-01T06:34:48.659Z,3.55
2023-04-01T06:40:12.540Z,3.08
2023-04-01T06:45:31.919Z,3.33
2023-04-01T06:51:05.888Z,3.03
2023-04-01T06:56:30.208Z,3.30
2023-04-01T07:01:53.073Z,3.47
2023-04-01T07:07:00.837Z,3.17
2023-04-01T07:12:16.612Z,2.80
2023-04-01T07:17:44.617Z,2.53
2023-04-01T07:22:51.635Z,2.25
2023-04-01T07:28:07.498Z,2.40
2023-04-01T07:33:21.219Z,2.45
2023-04-01T07:38:31.725Z,2.70
2023-04-01T07:43:38.122Z,2.20
2023-04-01T07:49:15.666Z,2.42
2023-04-01T07:54:56.561Z,1.95
2023-04-01T08:00:24.126Z,2.20
2023-04-01T08:05:48.106Z,2.20
2023-04-01T08:11:04.812Z,2.63
2023-04-01T08:16:48.201Z,2.10
2023-04-01T08:22:05.763Z,2.15
2023-04-01T08:27:19.111Z,2.25
2023-04-01T08:32:36.844Z,2.13
2023-04-01T08:37:42.602Z,1.73
2023-04-01T08:43:04.685Z,1.67
2023-04-01T08:48:22.322Z,1.67
2023-04-01T08:54:02.612Z,1.77
2023-04-01T08:59:47.732Z,1.77
2023-04-01T09:05:23.445Z,1.70
2023-04-01T09:10:34.965Z,1.77
2023-04-01T09:16:13.124Z,1.60
2023-04-01T09:21:48.820Z,1.63
2023-04-01T09:27:15.544Z,1.73
2023-04-01T09:32:32.250Z,1.73
2023-04-01T09:37:53.460Z,1.77
2023-04-01T09:43:14.726Z,1.70
2023-04-01T09:48:58.654Z,1.67
2023-04-01T09:54:03.889Z,1.60
2023-04-01T10:00:04.335Z,1.77
2023-04-01T10:05:21.606Z,1.90
2023-04-01T10:10:52.449Z,2.05
2023-04-01T10:16:17.973Z,1.40
2023-04-01T10:21:41.578Z,1.05
2023-04-01T10:27:02.403Z,1.50
2023-04-01T10:32:59.196Z,1.67
2023-04-01T10:38:31.825Z,1.17
2023-04-01T10:44:20.285Z,1.95
2023-04-01T10:49:47.945Z,1.83
2023-04-01T10:55:08.841Z,1.50
2023-04-01T11:01:08.761Z,1.27
2023-04-01T11:06:48.113Z,1.42
2023-04-01T11:12:28.970Z,2.00
2023-04-01T11:17:50.043Z,1.50
2023-04-01T11:23:13.911Z,1.60
2023-04-01T11:28:35.347Z,1.60
2023-04-01T11:33:38.625Z,1.52
2023-04-01T11:38:56.116Z,1.75
2023-04-01T11:44:31.725Z,1.40
2023-04-01T11:50:17.045Z,1.40
2023-04-01T11:55:49.211Z,1.30
2023-04-01T12:06:57.959Z,1.60
2023-04-01T12:12:06.727Z,1.52
2023-04-01T12:17:21.180Z,1.75
2023-04-01T12:22:23.536Z,1.50
2023-04-01T12:27:53.151Z,1.20
2023-04-01T12:33:26.918Z,1.70
2023-04-01T12:38:53.943Z,1.55
2023-04-01T12:44:22.732Z,1.92
2023-04-01T12:49:34.740Z,1.52
2023-04-01T12:54:55.661Z,1.75
2023-04-01T13:00:22.125Z,1.50
2023-04-01T13:05:49.226Z,1.33
2023-04-01T13:11:01.924Z,1.33
2023-04-01T13:16:17.799Z,1.50
2023-04-01T13:21:35.857Z,1.60
2023-04-01T13:26:46.938Z,1.38
2023-04-01T13:32:06.177Z,1.00
2023-04-01T13:37:20.755Z,1.40
2023-04-01T13:42:29.006Z,2.05
2023-04-01T13:48:08.905Z,1.90
2023-04-01T13:53:29.201Z,1.83
2023-04-01T13:59:00.802Z,2.00
2023-04-01T14:04:31.659Z,2.22
2023-04-01T14:10:00.981Z,2.03
2023-04-01T14:15:40.143Z,1.90
2023-04-01T14:20:48.156Z,1.48
2023-04-01T14:26:12.181Z,1.70
2023-04-01T14:31:22.971Z,1.60
2023-04-01T14:42:22.414Z,2.47
2023-04-01T14:47:30.884Z,2.10
2023-04-01T14:52:36.883Z,2.22
2023-04-01T14:57:39.205Z,2.22
2023-04-01T15:03:03.546Z,2.30
2023-04-01T15:08:17.140Z,2.50
2023-04-01T15:13:31.866Z,3.35
2023-04-01T15:19:01.069Z,3.33
2023-04-01T15:24:27.175Z,2.80
2023-04-01T15:29:51.524Z,3.35
2023-04-01T15:35:08.578Z,2.67
2023-04-01T15:40:43.245Z,2.50
2023-04-01T15:45:45.653Z,2.75
2023-04-01T15:50:51.254Z,2.97
2023-04-01T15:56:27.792Z,2.15
2023-04-01T16:01:32.845Z,2.83
2023-04-01T16:06:37.996Z,2.92
2023-04-01T16:12:05.826Z,3.20
2023-04-01T16:17:14.346Z,2.65
2023-04-01T16:22:43.494Z,4.22
2023-04-01T16:28:00.147Z,3.22
2023-04-01T16:33:14.495Z,4.30
2023-04-01T16:38:19.932Z,4.50
2023-04-01T16:43:47.793Z,4.07
2023-04-01T16:49:02.274Z,4.55
2023-04-01T16:54:13.959Z,4.32
2023-04-01T16:59:49.122Z,3.45
2023-04-01T17:05:06.854Z,3.60
2023-04-01T17:10:36.427Z,3.78
2023-04-01T17:15:53.690Z,3.97
2023-04-01T17:21:05.134Z,3.78
2023-04-01T17:26:13.626Z,3.65
2023-04-01T17:31:27.863Z,3.95
2023-04-01T17:36:55.078Z,4.43
2023-04-01T17:42:16.126Z,8.70
2023-04-01T17:47:33.025Z,11.43
2023-04-01T17:52:43.336Z,11.85
2023-04-01T17:58:18.443Z,11.13
2023-04-01T18:03:40.766Z,8.48
2023-04-01T18:09:01.151Z,6.55
2023-04-01T18:14:21.825Z,7.47
2023-04-01T18:19:39.570Z,7.10
2023-04-01T18:25:01.249Z,6.57
2023-04-01T18:30:07.861Z,6.18
2023-04-01T18:35:39.619Z,6.57
2023-04-01T18:40:55.027Z,5.90
2023-04-01T18:46:14.788Z,5.28
2023-04-01T18:51:40.746Z,5.25
2023-04-01T18:56:46.163Z,6.32
2023-04-01T19:02:03.990Z,4.75
2023-04-01T19:07:40.914Z,5.65
2023-04-01T19:12:55.291Z,4.80
2023-04-01T19:18:39.896Z,5.15
2023-04-01T19:24:17.027Z,5.38
2023-04-01T19:29:34.469Z,5.70
2023-04-01T19:40:01.298Z,6.07
2023-04-01T19:45:42.450Z,7.18
2023-04-01T19:50:57.297Z,8.40
2023-04-01T19:56:17.804Z,9.90
2023-04-01T20:01:45.167Z,11.25
2023-04-01T20:07:10.774Z,13.45
2023-04-01T20:12:18.971Z,14.20
2023-04-01T20:17:42.635Z,15.07
2023-04-01T20:28:26.677Z,15.75
2023-04-01T20:33:43.864Z,14.35
2023-04-01T20:39:17.171Z,14.63
2023-04-01T20:44:42.879Z,13.32
2023-04-01T20:49:45.197Z,12.68
2023-04-01T20:54:50.220Z,12.25
2023-04-01T21:00:19.154Z,12.88
2023-04-01T21:06:06.172Z,12.60
2023-04-01T21:11:17.577Z,12.77
2023-04-01T21:16:40.198Z,10.93
2023-04-01T21:21:42.458Z,10.70
2023-04-01T21:27:02.875Z,10.85
2023-04-01T21:32:33.561Z,10.65
2023-04-01T21:37:41.817Z,11.02
2023-04-01T21:42:59.026Z,10.25
2023-04-01T21:48:36.502Z,10.60
2023-04-01T21:54:00.490Z,8.88
2023-04-01T21:59:26.259Z,8.57
2023-04-01T22:12:38.734Z,7.43
2023-04-01T22:18:15.538Z,5.72
2023-04-01T22:23:23.547Z,6.05
2023-04-01T22:28:31.170Z,7.03
2023-04-01T22:34:01.477Z,7.32
2023-04-01T22:39:04.640Z,6.68
2023-04-01T22:44:17.049Z,6.80
2023-04-01T22:49:29.130Z,7.78
2023-04-01T22:54:46.994Z,8.30
2023-04-01T23:00:08.228Z,8.73
2023-04-01T23:05:17.982Z,7.30
2023-04-01T23:10:29.545Z,6.75
2023-04-01T23:15:34.704Z,4.13
2023-04-01T23:20:56.253Z,3.53
2023-04-01T23:26:10.364Z,2.85
2023-04-01T23:31:37.970Z,3.20
2023-04-01T23:36:50.189Z,2.83
2023-04-01T23:41:57.767Z,3.10
2023-04-01T23:47:01.756Z,2.60
2023-04-01T23:52:16.202Z,2.95
2023-04-01T23:57:28.447Z,2.90
